Edisongracht — PDUJ — position and weather

sailwx.info

Track history (hours):
 
Tides and Currents Weather Stations Pressure Air Temp Water Temp Dewpoint Dewpoint Depression Visibility Wind Speed Wind Dir Waves Ship Positions

Edisongracht

Last reported at 2018-Apr-14 16:22 UTC. Time now 2018-Apr-25 05:04 UTC.
Position N 49°49' W 003°48'.
Warning: this ship's position is 10 days out of date.

Length 136 m; beam 19 m; draft 9 m.

Type: Cargo ship. MMSI: 244262000.

Date/timePositionNaut miles runAvg speedWind from/ knotsBaromVisibWave heightAir tempDewpointWater temp
2018-Apr-14 16:22N 49°49' W 003°48'411.6
2018-Apr-14 16:00N 49°51' W 003°43'612.1
2018-Apr-14 15:30N 49°54' W 003°35'612.7
2018-Apr-14 15:00N 49°57' W 003°26'713.3
2018-Apr-14 14:30N 49°59' W 003°16'714.0
2018-Apr-14 14:00N 49°60' W 003°05'3415.7
2018-Apr-14 11:48N 50°08' W 002°13'915.8
2018-Apr-14 11:13N 50°11' W 001°59'315.1
2018-Apr-14 11:00N 50°12' W 001°54'1314.3
2018-Apr-14 10:06N 50°15' W 001°35'113.5
2018-Apr-14 10:00N 50°16' W 001°33'713.0
2018-Apr-14 09:30N 50°17' W 001°23'612.1
2018-Apr-14 09:00N 50°19' W 001°14'1210.9
2018-Apr-14 07:51N 50°22' W 000°55'2010.6
2018-Apr-14 06:00N 50°28' W 000°25'612.1
2018-Apr-14 05:29N 50°29' W 000°16'612.8
2018-Apr-14 05:01N 50°31' W 000°06'713.4
2018-Apr-14 04:31N 50°33' E 000°04'714.0
2018-Apr-14 04:00N 50°35' E 000°14'714.4
2018-Apr-14 03:31N 50°37' E 000°25'714.3
2018-Apr-14 03:00N 50°39' E 000°36'714.4
2018-Apr-14 02:31N 50°43' E 000°45'713.9
2018-Apr-14 02:00N 50°47' E 000°54'713.4
2018-Apr-14 01:30N 50°51' E 001°02'712.9
2018-Apr-14 00:59N 50°56' E 001°11'612.3
2018-Apr-14 00:30N 50°59' E 001°18'611.4
2018-Apr-14 00:00N 51°03' E 001°25'510.8
2018-Apr-13 23:30N 51°06' E 001°32'510.3
2018-Apr-13 23:00N 51°09' E 001°39'510.7
2018-Apr-13 22:30N 51°13' E 001°44'611.5
2018-Apr-13 22:00N 51°18' E 001°49'612.4
2018-Apr-13 21:31N 51°23' E 001°54'713.4
2018-Apr-13 21:00N 51°29' E 002°01'714.2
2018-Apr-13 20:30N 51°34' E 002°08'915.3
2018-Apr-13 19:57N 51°40' E 002°17'715.7
2018-Apr-13 19:29N 51°45' E 002°26'4611.8
2018-Apr-13 15:36N 52°03' E 003°34'812.7
2018-Apr-13 15:00N 52°03' E 003°47'4 8.1
2018-Apr-13 14:30N 52°03' E 003°53'2 4.7
2018-Apr-13 14:00N 52°02' E 003°56'713.4
2018-Apr-13 13:30N 51°59' E 004°06'611.2
2018-Apr-13 13:01N 51°56' E 004°14'4 8.3
2018-Apr-13 12:30N 51°54' E 004°20'4 8.1
2018-Apr-13 12:01N 51°54' E 004°26'1 1.1
2018-Apr-13 11:28N 51°54' E 004°27'0 0.0
2018-Apr-13 10:58N 51°54' E 004°27'0 0.0
2018-Apr-13 10:28N 51°54' E 004°27'0 0.0
2018-Apr-13 09:58N 51°54' E 004°27'0 0.0
2018-Apr-13 09:29N 51°54' E 004°27'0 0.0
2018-Apr-13 08:59N 51°54' E 004°27'0 0.0
2018-Apr-13 08:29N 51°54' E 004°27'0 0.0
2018-Apr-13 07:58N 51°54' E 004°27'0 0.0
2018-Apr-13 07:28N 51°54' E 004°27'0 0.0
2018-Apr-13 06:58N 51°54' E 004°27'0 0.0
2018-Apr-13 06:29N 51°54' E 004°27'0 0.0
2018-Apr-13 05:59N 51°54' E 004°27'0 0.0
2018-Apr-13 05:28N 51°54' E 004°27'0 0.0
2018-Apr-13 04:58N 51°54' E 004°27'0 0.0
2018-Apr-13 04:29N 51°54' E 004°27'0 0.0
2018-Apr-13 03:59N 51°54' E 004°27'0 0.0
2018-Apr-13 03:28N 51°54' E 004°27'0 0.0
2018-Apr-13 02:58N 51°54' E 004°27'0 0.0
2018-Apr-13 02:28N 51°54' E 004°27'0 0.0
2018-Apr-13 01:58N 51°54' E 004°27'0 0.0
2018-Apr-13 01:28N 51°54' E 004°27'0 0.0
2018-Apr-13 00:58N 51°54' E 004°27'0 0.0
2018-Apr-13 00:30N 51°54' E 004°27'1 1.8
2018-Apr-13 00:01N 51°54' E 004°26'4 7.3
2018-Apr-12 23:30N 51°54' E 004°20'510.1
2018-Apr-12 23:00N 51°56' E 004°13'612.5
2018-Apr-12 22:30N 51°59' E 004°04'713.8
2018-Apr-12 22:00N 51°60' E 003°53'510.2
2018-Apr-12 21:30N 51°59' E 003°45'4 7.2
2018-Apr-12 21:00N 51°57' E 003°39'8 8.7
2018-Apr-12 20:06N 51°55' E 003°27'411.7
2018-Apr-12 19:46N 51°53' E 003°22'510.6
2018-Apr-12 19:20N 51°49' E 003°18'3 8.3
2018-Apr-12 18:58N 51°46' E 003°16'11 8.7
2018-Apr-12 17:46N 51°37' E 003°22'310.9
2018-Apr-12 17:28N 51°34' E 003°25'5 9.9
2018-Apr-12 17:00N 51°30' E 003°29'511.0
2018-Apr-12 16:31N 51°26' E 003°35'510.1
2018-Apr-12 16:00N 51°24' E 003°43'612.9
2018-Apr-12 15:30N 51°21' E 003°51'713.5
2018-Apr-12 15:00N 51°26' E 003°59'511.1
2018-Apr-12 14:30N 51°22' E 004°05'510.1
2018-Apr-12 14:01N 51°23' E 004°13'510.3
2018-Apr-12 13:30N 51°18' E 004°16'1 2.5
2018-Apr-12 13:00N 51°17' E 004°15'0 0.9
2018-Apr-12 12:31N 51°16' E 004°15'1 1.6
2018-Apr-12 11:56N 51°15' E 004°14'0 0.0
2018-Apr-12 11:26N 51°15' E 004°14'0 0.0
2018-Apr-12 10:59N 51°15' E 004°14'0 0.0
2018-Apr-12 10:26N 51°15' E 004°14'0 0.0
2018-Apr-12 09:59N 51°15' E 004°14'0 0.0
2018-Apr-12 09:29N 51°15' E 004°14'0 0.0
2018-Apr-12 08:59N 51°15' E 004°14'0 0.0
2018-Apr-12 08:29N 51°15' E 004°14'0 0.0
2018-Apr-12 07:59N 51°15' E 004°14'0 0.0
2018-Apr-12 07:29N 51°15' E 004°14'0 0.0
2018-Apr-12 06:59N 51°15' E 004°14'0 0.0
2018-Apr-12 06:23N 51°15' E 004°14'0 0.0
2018-Apr-12 05:59N 51°15' E 004°14'0 0.0
2018-Apr-12 05:26N 51°15' E 004°14'0 0.0
2018-Apr-12 04:59N 51°15' E 004°14'0 0.0
2018-Apr-12 04:29N 51°15' E 004°14'0 0.0
2018-Apr-12 03:53N 51°15' E 004°14'0 0.0
2018-Apr-12 03:29N 51°15' E 004°14'0 0.0
2018-Apr-12 02:59N 51°15' E 004°14'0 0.0
2018-Apr-12 02:29N 51°15' E 004°14'0 0.0
2018-Apr-12 01:59N 51°15' E 004°14'0 0.0
2018-Apr-12 01:29N 51°15' E 004°14'0 0.0
2018-Apr-12 00:59N 51°15' E 004°14'0 0.0
2018-Apr-12 00:25N 51°15' E 004°14'0 0.0
2018-Apr-11 23:58N 51°15' E 004°14'0 0.0
2018-Apr-11 23:29N 51°15' E 004°14'0 0.0
2018-Apr-11 22:52N 51°15' E 004°14'0 0.0
2018-Apr-11 22:29N 51°15' E 004°14'0 0.0
2018-Apr-11 21:59N 51°15' E 004°14'0 0.0
2018-Apr-11 21:29N 51°15' E 004°14'0 0.0
2018-Apr-11 20:59N 51°15' E 004°14'0 0.0
2018-Apr-11 20:26N 51°15' E 004°14'0 0.0
2018-Apr-11 19:59N 51°15' E 004°14'0 0.0
2018-Apr-11 19:26N 51°15' E 004°14'0 0.0
2018-Apr-11 18:53N 51°15' E 004°14'0 0.0
2018-Apr-11 18:29N 51°15' E 004°14'0 0.0
2018-Apr-11 17:55N 51°15' E 004°14'0 0.0
2018-Apr-11 17:22N 51°15' E 004°14'0 0.0
2018-Apr-11 16:56N 51°15' E 004°14'0 0.0
2018-Apr-11 16:28N 51°15' E 004°14'0 0.0
2018-Apr-11 15:55N 51°15' E 004°14'0 0.0
2018-Apr-11 15:25N 51°15' E 004°14'0 0.0
2018-Apr-11 14:43N 51°15' E 004°14'0 0.0
2018-Apr-11 14:16N 51°15' E 004°14'0 0.0
2018-Apr-11 13:58N 51°15' E 004°14'0 0.0
2018-Apr-11 13:28N 51°15' E 004°14'0 0.0
2018-Apr-11 12:50N 51°15' E 004°14'0 0.0
2018-Apr-11 12:28N 51°15' E 004°14'0 0.0
2018-Apr-11 11:55N 51°15' E 004°14'0 0.0
2018-Apr-11 11:28N 51°15' E 004°14'0 0.0
2018-Apr-11 10:58N 51°15' E 004°14'0 0.0
2018-Apr-11 10:22N 51°15' E 004°14'0 0.0
2018-Apr-11 09:55N 51°15' E 004°14'0 0.0
2018-Apr-11 09:16N 51°15' E 004°14'0 0.0
2018-Apr-11 08:58N 51°15' E 004°14'0 0.0
2018-Apr-11 08:28N 51°15' E 004°14'0 0.0
2018-Apr-11 07:58N 51°15' E 004°14'0 0.0
2018-Apr-11 07:25N 51°15' E 004°14'0 0.0
2018-Apr-11 06:58N 51°15' E 004°14'0 0.0
2018-Apr-11 06:28N 51°15' E 004°14'0 0.0
2018-Apr-11 05:55N 51°15' E 004°14'0 0.0
2018-Apr-11 05:19N 51°15' E 004°14'0 0.0
2018-Apr-11 04:58N 51°15' E 004°14'0 0.0
2018-Apr-11 04:22N 51°15' E 004°14'0 0.0
2018-Apr-11 03:58N 51°15' E 004°14'0 0.0
2018-Apr-11 03:25N 51°15' E 004°14'0 0.0
2018-Apr-11 02:52N 51°15' E 004°14'0 0.0
2018-Apr-11 02:13N 51°15' E 004°14'0 0.0
2018-Apr-11 01:59N 51°15' E 004°14'0 0.0
2018-Apr-11 01:28N 51°15' E 004°14'0 0.0
2018-Apr-11 00:55N 51°15' E 004°14'0 0.0
2018-Apr-11 00:28N 51°15' E 004°14'0 0.0
2018-Apr-10 23:49N 51°15' E 004°14'0 0.0
2018-Apr-10 23:25N 51°15' E 004°14'0 0.0
2018-Apr-10 22:58N 51°15' E 004°14'0 0.0
2018-Apr-10 22:28N 51°15' E 004°14'0 0.0
2018-Apr-10 21:46N 51°15' E 004°14'0 0.0
2018-Apr-10 21:13N 51°15' E 004°14'0 0.0
2018-Apr-10 20:58N 51°15' E 004°14'0 0.0
2018-Apr-10 20:07N 51°15' E 004°14'0 0.0
2018-Apr-10 19:58N 51°15' E 004°14'0 0.0
2018-Apr-10 19:28N 51°15' E 004°14'0 0.0
2018-Apr-10 18:58N 51°15' E 004°14'0 0.0
2018-Apr-10 18:25N 51°15' E 004°14'0 0.0
2018-Apr-10 17:52N 51°15' E 004°14'0 0.0
2018-Apr-10 17:22N 51°15' E 004°14'0 0.0
2018-Apr-10 16:58N 51°15' E 004°14'0 0.0
2018-Apr-10 16:28N 51°15' E 004°14'0 0.0
2018-Apr-10 15:58N 51°15' E 004°14'0 0.0
2018-Apr-10 15:07N 51°15' E 004°14'0 0.0
2018-Apr-10 14:58N 51°15' E 004°14'0 0.0
2018-Apr-10 14:28N 51°15' E 004°14'0 0.0
2018-Apr-10 13:46N 51°15' E 004°14'0 0.0
2018-Apr-10 13:28N 51°15' E 004°14'0 0.0
2018-Apr-10 12:55N 51°15' E 004°14'0 0.0
2018-Apr-10 12:25N 51°15' E 004°14'0 0.0
2018-Apr-10 11:58N 51°15' E 004°14'0 0.0
2018-Apr-10 11:28N 51°15' E 004°14'0 0.0
2018-Apr-10 10:58N 51°15' E 004°14'0 0.0
2018-Apr-10 10:28N 51°15' E 004°14'0 0.0
2018-Apr-10 09:52N 51°15' E 004°14'0 0.0
2018-Apr-10 09:22N 51°15' E 004°14'0 0.0
2018-Apr-10 07:34N 51°15' E 004°14'0 0.0
2018-Apr-10 07:28N 51°15' E 004°14'0 0.0
2018-Apr-10 06:52N 51°15' E 004°14'0 0.0
2018-Apr-10 06:22N 51°15' E 004°14'0 0.0
2018-Apr-10 05:46N 51°15' E 004°14'0 0.0
2018-Apr-10 05:28N 51°15' E 004°14'0 0.0
2018-Apr-10 04:55N 51°15' E 004°14'0 0.0
2018-Apr-10 04:28N 51°15' E 004°14'0 0.0
2018-Apr-10 03:58N 51°15' E 004°14'0 0.0
2018-Apr-10 03:28N 51°15' E 004°14'0 0.0
2018-Apr-10 02:58N 51°15' E 004°14'0 0.0
2018-Apr-10 02:22N 51°15' E 004°14'0 0.0
2018-Apr-10 01:55N 51°15' E 004°14'0 0.0
2018-Apr-10 01:25N 51°15' E 004°14'0 0.0
2018-Apr-10 00:58N 51°15' E 004°14'0 0.0
2018-Apr-10 00:25N 51°15' E 004°14'0 0.0
2018-Apr-09 23:58N 51°15' E 004°14'0 0.0
2018-Apr-09 23:16N 51°15' E 004°14'0 0.0
2018-Apr-09 22:58N 51°15' E 004°14'0 0.0
2018-Apr-09 22:28N 51°15' E 004°14'0 0.0
2018-Apr-09 21:58N 51°15' E 004°14'0 0.0
2018-Apr-09 21:25N 51°15' E 004°14'0 0.0
2018-Apr-09 20:55N 51°15' E 004°14'0 0.0
2018-Apr-09 20:25N 51°15' E 004°14'0 0.0
2018-Apr-09 19:58N 51°15' E 004°14'0 0.0
2018-Apr-09 19:25N 51°15' E 004°14'0 0.0
2018-Apr-09 18:58N 51°15' E 004°14'0 0.0
2018-Apr-09 18:28N 51°15' E 004°14'0 0.0
2018-Apr-09 17:58N 51°15' E 004°14'0 0.0
2018-Apr-09 17:28N 51°15' E 004°14'0 0.0
2018-Apr-09 16:52N 51°15' E 004°14'0 0.0
2018-Apr-09 16:22N 51°15' E 004°14'0 0.0
2018-Apr-09 15:58N 51°15' E 004°14'0 0.0
2018-Apr-09 15:25N 51°15' E 004°14'0 0.0
2018-Apr-09 14:58N 51°15' E 004°14'0 0.0
2018-Apr-09 14:28N 51°15' E 004°14'0 0.0
2018-Apr-09 13:58N 51°15' E 004°14'0 0.0
2018-Apr-09 13:28N 51°15' E 004°14'0 0.0
2018-Apr-09 12:55N 51°15' E 004°14'0 0.0
2018-Apr-09 12:25N 51°15' E 004°14'0 0.0
2018-Apr-09 11:52N 51°15' E 004°14'0 0.0
2018-Apr-09 11:28N 51°15' E 004°14'0 0.0
2018-Apr-09 10:52N 51°15' E 004°14'0 0.0
2018-Apr-09 10:28N 51°15' E 004°14'0 0.0
2018-Apr-09 09:58N 51°15' E 004°14'0 0.0
2018-Apr-09 09:28N 51°15' E 004°14'0 0.0
2018-Apr-09 08:55N 51°15' E 004°14'0 0.0
2018-Apr-09 08:19N 51°15' E 004°14'0 0.0
2018-Apr-09 07:55N 51°15' E 004°14'0 0.0
2018-Apr-09 07:25N 51°15' E 004°14'0 0.0
2018-Apr-09 06:58N 51°15' E 004°14'0 0.0
2018-Apr-09 06:25N 51°15' E 004°14'0 0.0
2018-Apr-09 05:58N 51°15' E 004°14'0 0.0
2018-Apr-09 05:13N 51°15' E 004°14'0 0.0
2018-Apr-09 04:55N 51°15' E 004°14'0 0.0
2018-Apr-09 04:28N 51°15' E 004°14'0 0.0
2018-Apr-09 03:52N 51°15' E 004°14'0 0.0
2018-Apr-09 03:28N 51°15' E 004°14'0 0.0
2018-Apr-09 02:58N 51°15' E 004°14'0 0.0
2018-Apr-09 02:28N 51°15' E 004°14'0 0.0
2018-Apr-09 01:58N 51°15' E 004°14'0 0.0
2018-Apr-09 01:28N 51°15' E 004°14'0 0.0
2018-Apr-09 00:55N 51°15' E 004°14'0 0.0
2018-Apr-09 00:28N 51°15' E 004°14'0 0.0
2018-Apr-08 23:55N 51°15' E 004°14'0 0.0
2018-Apr-08 23:25N 51°15' E 004°14'0 0.0
2018-Apr-08 22:58N 51°15' E 004°14'0 0.0
2018-Apr-08 22:28N 51°15' E 004°14'0 0.0
2018-Apr-08 21:58N 51°15' E 004°14'0 0.0
2018-Apr-08 21:28N 51°15' E 004°14'0 0.0
2018-Apr-08 20:55N 51°15' E 004°14'0 0.0
2018-Apr-08 20:25N 51°15' E 004°14'0 0.0
2018-Apr-08 19:55N 51°15' E 004°14'0 0.0
2018-Apr-08 19:28N 51°15' E 004°14'0 0.0
2018-Apr-08 18:58N 51°15' E 004°14'0 0.0
2018-Apr-08 18:28N 51°15' E 004°14'0 0.0
2018-Apr-08 17:58N 51°15' E 004°14'0 0.0
2018-Apr-08 17:28N 51°15' E 004°14'0 0.0
2018-Apr-08 16:46N 51°15' E 004°14'0 0.0
2018-Apr-08 16:25N 51°15' E 004°14'0 0.0
2018-Apr-08 15:55N 51°15' E 004°14'0 0.0
2018-Apr-08 14:43N 51°15' E 004°14'0 0.0
2018-Apr-08 14:28N 51°15' E 004°14'0 0.0
2018-Apr-08 13:55N 51°15' E 004°14'0 0.0
2018-Apr-08 13:25N 51°15' E 004°14'0 0.0
2018-Apr-08 12:58N 51°15' E 004°14'0 0.0
2018-Apr-08 12:25N 51°15' E 004°14'0 0.0
2018-Apr-08 11:55N 51°15' E 004°14'0 0.0
2018-Apr-08 11:25N 51°15' E 004°14'0 0.0
2018-Apr-08 10:55N 51°15' E 004°14'0 0.0
2018-Apr-08 10:28N 51°15' E 004°14'0 0.0
2018-Apr-08 09:52N 51°15' E 004°14'0 0.0
2018-Apr-08 09:28N 51°15' E 004°14'0 0.0
2018-Apr-08 08:58N 51°15' E 004°14'0 0.0
2018-Apr-08 08:28N 51°15' E 004°14'0 0.0
2018-Apr-08 07:58N 51°15' E 004°14'0 0.0
2018-Apr-08 07:28N 51°15' E 004°14'0 0.0
2018-Apr-08 06:55N 51°15' E 004°14'0 0.0
2018-Apr-08 06:28N 51°15' E 004°14'0 0.0
2018-Apr-08 05:58N 51°15' E 004°14'0 0.0
2018-Apr-08 05:28N 51°15' E 004°14'0 0.0
2018-Apr-08 04:55N 51°15' E 004°14'0 0.0
2018-Apr-08 04:28N 51°15' E 004°14'0 0.0
2018-Apr-08 03:58N 51°15' E 004°14'0 0.0
2018-Apr-08 03:28N 51°15' E 004°14'0 0.0
2018-Apr-08 02:58N 51°15' E 004°14'0 0.0
2018-Apr-08 02:25N 51°15' E 004°14'0 0.0
2018-Apr-08 01:55N 51°15' E 004°14'0 0.0
2018-Apr-08 01:28N 51°15' E 004°14'0 0.0
2018-Apr-08 00:55N 51°15' E 004°14'0 0.0
2018-Apr-08 00:28N 51°15' E 004°14'0 0.0
2018-Apr-07 23:55N 51°15' E 004°14'0 0.0
2018-Apr-07 23:28N 51°15' E 004°14'0 0.0
2018-Apr-07 22:55N 51°15' E 004°14'0 0.0
2018-Apr-07 22:28N 51°15' E 004°14'0 0.0
2018-Apr-07 21:58N 51°15' E 004°14'0 0.0
2018-Apr-07 21:28N 51°15' E 004°14'0 0.0
2018-Apr-07 20:58N 51°15' E 004°14'0 0.0
2018-Apr-07 20:28N 51°15' E 004°14'0 0.0
2018-Apr-07 19:58N 51°15' E 004°14'0 0.0
2018-Apr-07 19:28N 51°15' E 004°14'0 0.0
2018-Apr-07 18:55N 51°15' E 004°14'0 0.0
2018-Apr-07 18:28N 51°15' E 004°14'0 0.0
2018-Apr-07 17:58N 51°15' E 004°14'0 0.0
2018-Apr-07 17:28N 51°15' E 004°14'0 0.0
2018-Apr-07 16:58N 51°15' E 004°14'0 0.0
2018-Apr-07 16:28N 51°15' E 004°14'0 0.0
2018-Apr-07 15:58N 51°15' E 004°14'0 0.0
2018-Apr-07 15:25N 51°15' E 004°14'0 0.0
2018-Apr-07 14:49N 51°15' E 004°14'0 0.0
2018-Apr-07 14:28N 51°15' E 004°14'0 0.0
2018-Apr-07 13:58N 51°15' E 004°14'0 0.0
2018-Apr-07 13:28N 51°15' E 004°14'0 0.0
2018-Apr-07 12:55N 51°15' E 004°14'0 0.0
2018-Apr-07 12:28N 51°15' E 004°14'0 0.0
2018-Apr-07 11:58N 51°15' E 004°14'0 0.0
2018-Apr-07 11:25N 51°15' E 004°14'0 0.0
2018-Apr-07 10:58N 51°15' E 004°14'0 0.0
2018-Apr-07 10:19N 51°15' E 004°14'0 0.0
2018-Apr-07 09:55N 51°15' E 004°14'0 0.0
2018-Apr-07 09:28N 51°15' E 004°14'0 0.0
2018-Apr-07 08:58N 51°15' E 004°14'0 0.0
2018-Apr-07 08:28N 51°15' E 004°14'0 0.0
2018-Apr-07 07:58N 51°15' E 004°14'0 0.0
2018-Apr-07 07:25N 51°15' E 004°14'0 0.0
2018-Apr-07 06:58N 51°15' E 004°14'0 0.0
2018-Apr-07 06:22N 51°15' E 004°14'0 0.0
2018-Apr-07 05:52N 51°15' E 004°14'0 0.0
2018-Apr-07 05:28N 51°15' E 004°14'0 0.0
2018-Apr-07 04:58N 51°15' E 004°14'0 0.0
2018-Apr-07 04:28N 51°15' E 004°14'0 0.0
2018-Apr-07 03:58N 51°15' E 004°14'0 0.0
2018-Apr-07 03:25N 51°15' E 004°14'0 0.0
2018-Apr-07 02:58N 51°15' E 004°14'0 0.0
2018-Apr-07 02:28N 51°15' E 004°14'0 0.0
2018-Apr-07 01:58N 51°15' E 004°14'0 0.0
2018-Apr-07 01:28N 51°15' E 004°14'0 0.0
2018-Apr-07 00:58N 51°15' E 004°14'0 0.0
2018-Apr-07 00:30N 51°15' E 004°14'2 3.4
2018-Apr-07 00:00N 51°16' E 004°17'0 0.0
2018-Apr-06 23:31N 51°16' E 004°17'1 1.1
2018-Apr-06 23:00N 51°16' E 004°18'2 3.3
2018-Apr-06 22:30N 51°17' E 004°19'3 6.6
2018-Apr-06 22:00N 51°20' E 004°16'5 9.2
2018-Apr-06 21:30N 51°24' E 004°12'510.7
2018-Apr-06 21:00N 51°22' E 004°04'5 9.3
2018-Apr-06 20:30N 51°26' E 003°59'611.8
2018-Apr-06 20:00N 51°21' E 003°53'3 5.7
2018-Apr-06 19:30N 51°20' E 003°49'0 0.4
2018-Apr-06 19:00N 51°20' E 003°49'1 2.3
2018-Apr-06 18:31N 51°18' E 003°50'0 0.8
2018-Apr-06 17:59N 51°18' E 003°50'0 0.0
2018-Apr-06 17:29N 51°18' E 003°50'0 0.0
2018-Apr-06 16:59N 51°18' E 003°50'0 0.0
2018-Apr-06 16:29N 51°18' E 003°50'0 0.0
2018-Apr-06 15:59N 51°18' E 003°50'0 0.0
2018-Apr-06 15:29N 51°18' E 003°50'0 0.0
2018-Apr-06 14:59N 51°18' E 003°50'0 0.0
2018-Apr-06 14:29N 51°18' E 003°50'0 0.0
2018-Apr-06 13:59N 51°18' E 003°50'0 0.0
2018-Apr-06 13:29N 51°18' E 003°50'0 0.0
2018-Apr-06 12:59N 51°18' E 003°50'0 0.0
2018-Apr-06 12:29N 51°18' E 003°50'0 0.0
2018-Apr-06 11:59N 51°18' E 003°50'0 0.0
2018-Apr-06 11:29N 51°18' E 003°50'0 0.0
2018-Apr-06 10:59N 51°18' E 003°50'0 0.0
2018-Apr-06 10:29N 51°18' E 003°50'0 0.0
2018-Apr-06 09:59N 51°18' E 003°50'0 0.0
2018-Apr-06 09:29N 51°18' E 003°50'0 0.0
2018-Apr-06 08:59N 51°18' E 003°50'0 0.0
2018-Apr-06 08:29N 51°18' E 003°50'0 0.0
2018-Apr-06 07:59N 51°18' E 003°50'0 0.0
2018-Apr-06 07:29N 51°18' E 003°50'0 0.0
2018-Apr-06 06:59N 51°18' E 003°50'0 0.0
2018-Apr-06 06:29N 51°18' E 003°50'0 0.0
2018-Apr-06 05:59N 51°18' E 003°50'0 0.0
2018-Apr-06 05:29N 51°18' E 003°50'0 0.0
2018-Apr-06 04:59N 51°18' E 003°50'0 0.0
2018-Apr-06 04:29N 51°18' E 003°50'0 0.0
2018-Apr-06 03:59N 51°18' E 003°50'0 0.0
2018-Apr-06 03:28N 51°18' E 003°50'0 0.0
2018-Apr-06 02:58N 51°18' E 003°50'0 0.0
2018-Apr-06 02:28N 51°18' E 003°50'0 0.0
2018-Apr-06 01:59N 51°18' E 003°50'0 0.0
2018-Apr-06 01:29N 51°18' E 003°50'0 0.0
2018-Apr-06 00:59N 51°18' E 003°50'0 0.0
2018-Apr-06 00:29N 51°18' E 003°50'0 0.0
2018-Apr-05 23:59N 51°18' E 003°50'0 0.0
2018-Apr-05 23:29N 51°18' E 003°50'0 0.0
2018-Apr-05 22:58N 51°18' E 003°50'0 0.0
2018-Apr-05 22:28N 51°18' E 003°50'0 0.0
2018-Apr-05 21:59N 51°18' E 003°50'0 0.0
2018-Apr-05 21:29N 51°18' E 003°50'0 0.0
2018-Apr-05 20:58N 51°18' E 003°50'0 0.0
2018-Apr-05 20:25N 51°18' E 003°50'0 0.0
2018-Apr-05 19:58N 51°18' E 003°50'0 0.0
2018-Apr-05 19:28N 51°18' E 003°50'0 0.0
2018-Apr-05 18:58N 51°18' E 003°50'0 0.0
2018-Apr-05 18:28N 51°18' E 003°50'0 0.0
2018-Apr-05 17:59N 51°18' E 003°50'0 0.0
2018-Apr-05 17:28N 51°18' E 003°50'0 0.0
2018-Apr-05 16:58N 51°18' E 003°50'0 0.0
2018-Apr-05 16:28N 51°18' E 003°50'0 0.0
2018-Apr-05 15:58N 51°18' E 003°50'0 0.0
2018-Apr-05 15:28N 51°18' E 003°50'0 0.0
2018-Apr-05 14:58N 51°18' E 003°50'0 0.0
2018-Apr-05 14:28N 51°18' E 003°50'0 0.0
2018-Apr-05 13:58N 51°18' E 003°50'0 0.0
2018-Apr-05 13:28N 51°18' E 003°50'0 0.0
2018-Apr-05 12:58N 51°18' E 003°50'0 0.0
2018-Apr-05 12:29N 51°18' E 003°50'0 0.0
2018-Apr-05 11:58N 51°18' E 003°50'0 0.0
2018-Apr-05 11:28N 51°18' E 003°50'0 0.0
2018-Apr-05 10:58N 51°18' E 003°50'0 0.0
2018-Apr-05 10:28N 51°18' E 003°50'0 0.0
2018-Apr-05 09:58N 51°18' E 003°50'0 0.0
2018-Apr-05 09:26N 51°18' E 003°50'0 0.0
2018-Apr-05 08:58N 51°18' E 003°50'0 0.0
2018-Apr-05 08:28N 51°18' E 003°50'0 0.0
2018-Apr-05 07:58N 51°18' E 003°50'0 0.0
2018-Apr-05 07:28N 51°18' E 003°50'0 0.0
2018-Apr-05 06:58N 51°18' E 003°50'0 0.0
2018-Apr-05 06:28N 51°18' E 003°50'0 0.0
2018-Apr-05 05:58N 51°18' E 003°50'0 0.0
2018-Apr-05 05:28N 51°18' E 003°50'0 0.0
2018-Apr-05 04:58N 51°18' E 003°50'0 0.0
2018-Apr-05 04:28N 51°18' E 003°50'0 0.0
2018-Apr-05 03:58N 51°18' E 003°50'0 0.0
2018-Apr-05 03:28N 51°18' E 003°50'0 0.0
2018-Apr-05 02:58N 51°18' E 003°50'0 0.0
2018-Apr-05 02:28N 51°18' E 003°50'0 0.0
2018-Apr-05 01:58N 51°18' E 003°50'0 0.0
2018-Apr-05 01:28N 51°18' E 003°50'0 0.0
2018-Apr-05 00:58N 51°18' E 003°50'0 0.0
2018-Apr-05 00:28N 51°18' E 003°50'0 0.0
2018-Apr-04 23:59N 51°18' E 003°50'0 0.0
2018-Apr-04 23:28N 51°18' E 003°50'0 0.0
2018-Apr-04 22:58N 51°18' E 003°50'0 0.0
2018-Apr-04 22:28N 51°18' E 003°50'0 0.0
2018-Apr-04 21:58N 51°18' E 003°50'0 0.0
2018-Apr-04 21:29N 51°18' E 003°50'0 0.0
2018-Apr-04 20:58N 51°18' E 003°50'0 0.0
2018-Apr-04 20:28N 51°18' E 003°50'0 0.0
2018-Apr-04 19:58N 51°18' E 003°50'0 0.0
2018-Apr-04 19:28N 51°18' E 003°50'0 0.0
2018-Apr-04 18:58N 51°18' E 003°50'0 0.0
2018-Apr-04 18:28N 51°18' E 003°50'0 0.0
2018-Apr-04 17:58N 51°18' E 003°50'0 0.0
2018-Apr-04 17:28N 51°18' E 003°50'0 0.0
2018-Apr-04 16:58N 51°18' E 003°50'0 0.0
2018-Apr-04 16:28N 51°18' E 003°50'  
Track history (hours):
 
Tides and Currents Weather Stations Pressure Air Temp Water Temp Dewpoint Dewpoint Depression Visibility Wind Speed Wind Dir Waves Ship Positions

Edisongracht

Last reported at 2018-Apr-14 16:22 UTC. Time now 2018-Apr-25 05:04 UTC.
Position N 49°49' W 003°48'.
Warning: this ship's position is 10 days out of date.

Length 136 m; beam 19 m; draft 9 m.

Type: Cargo ship. MMSI: 244262000.

Date/timePositionNaut miles runAvg speedWind from/ knotsBaromVisibWave heightAir tempDewpointWater temp
2018-Apr-14 16:22N 49°49' W 003°48'411.6
2018-Apr-14 16:00N 49°51' W 003°43'612.1
2018-Apr-14 15:30N 49°54' W 003°35'612.7
2018-Apr-14 15:00N 49°57' W 003°26'713.3
2018-Apr-14 14:30N 49°59' W 003°16'714.0
2018-Apr-14 14:00N 49°60' W 003°05'3415.7
2018-Apr-14 11:48N 50°08' W 002°13'915.8
2018-Apr-14 11:13N 50°11' W 001°59'315.1
2018-Apr-14 11:00N 50°12' W 001°54'1314.3
2018-Apr-14 10:06N 50°15' W 001°35'113.5
2018-Apr-14 10:00N 50°16' W 001°33'713.0
2018-Apr-14 09:30N 50°17' W 001°23'612.1
2018-Apr-14 09:00N 50°19' W 001°14'1210.9
2018-Apr-14 07:51N 50°22' W 000°55'2010.6
2018-Apr-14 06:00N 50°28' W 000°25'612.1
2018-Apr-14 05:29N 50°29' W 000°16'612.8
2018-Apr-14 05:01N 50°31' W 000°06'713.4
2018-Apr-14 04:31N 50°33' E 000°04'714.0
2018-Apr-14 04:00N 50°35' E 000°14'714.4
2018-Apr-14 03:31N 50°37' E 000°25'714.3
2018-Apr-14 03:00N 50°39' E 000°36'714.4
2018-Apr-14 02:31N 50°43' E 000°45'713.9
2018-Apr-14 02:00N 50°47' E 000°54'713.4
2018-Apr-14 01:30N 50°51' E 001°02'712.9
2018-Apr-14 00:59N 50°56' E 001°11'612.3
2018-Apr-14 00:30N 50°59' E 001°18'611.4
2018-Apr-14 00:00N 51°03' E 001°25'510.8
2018-Apr-13 23:30N 51°06' E 001°32'510.3
2018-Apr-13 23:00N 51°09' E 001°39'510.7
2018-Apr-13 22:30N 51°13' E 001°44'611.5
2018-Apr-13 22:00N 51°18' E 001°49'612.4
2018-Apr-13 21:31N 51°23' E 001°54'713.4
2018-Apr-13 21:00N 51°29' E 002°01'714.2
2018-Apr-13 20:30N 51°34' E 002°08'915.3
2018-Apr-13 19:57N 51°40' E 002°17'715.7
2018-Apr-13 19:29N 51°45' E 002°26'4611.8
2018-Apr-13 15:36N 52°03' E 003°34'812.7
2018-Apr-13 15:00N 52°03' E 003°47'4 8.1
2018-Apr-13 14:30N 52°03' E 003°53'2 4.7
2018-Apr-13 14:00N 52°02' E 003°56'713.4
2018-Apr-13 13:30N 51°59' E 004°06'611.2
2018-Apr-13 13:01N 51°56' E 004°14'4 8.3
2018-Apr-13 12:30N 51°54' E 004°20'4 8.1
2018-Apr-13 12:01N 51°54' E 004°26'1 1.1
2018-Apr-13 11:28N 51°54' E 004°27'0 0.0
2018-Apr-13 10:58N 51°54' E 004°27'0 0.0
2018-Apr-13 10:28N 51°54' E 004°27'0 0.0
2018-Apr-13 09:58N 51°54' E 004°27'0 0.0
2018-Apr-13 09:29N 51°54' E 004°27'0 0.0
2018-Apr-13 08:59N 51°54' E 004°27'0 0.0
2018-Apr-13 08:29N 51°54' E 004°27'0 0.0
2018-Apr-13 07:58N 51°54' E 004°27'0 0.0
2018-Apr-13 07:28N 51°54' E 004°27'0 0.0
2018-Apr-13 06:58N 51°54' E 004°27'0 0.0
2018-Apr-13 06:29N 51°54' E 004°27'0 0.0
2018-Apr-13 05:59N 51°54' E 004°27'0 0.0
2018-Apr-13 05:28N 51°54' E 004°27'0 0.0
2018-Apr-13 04:58N 51°54' E 004°27'0 0.0
2018-Apr-13 04:29N 51°54' E 004°27'0 0.0
2018-Apr-13 03:59N 51°54' E 004°27'0 0.0
2018-Apr-13 03:28N 51°54' E 004°27'0 0.0
2018-Apr-13 02:58N 51°54' E 004°27'0 0.0
2018-Apr-13 02:28N 51°54' E 004°27'0 0.0
2018-Apr-13 01:58N 51°54' E 004°27'0 0.0
2018-Apr-13 01:28N 51°54' E 004°27'0 0.0
2018-Apr-13 00:58N 51°54' E 004°27'0 0.0
2018-Apr-13 00:30N 51°54' E 004°27'1 1.8
2018-Apr-13 00:01N 51°54' E 004°26'4 7.3
2018-Apr-12 23:30N 51°54' E 004°20'510.1
2018-Apr-12 23:00N 51°56' E 004°13'612.5
2018-Apr-12 22:30N 51°59' E 004°04'713.8
2018-Apr-12 22:00N 51°60' E 003°53'510.2
2018-Apr-12 21:30N 51°59' E 003°45'4 7.2
2018-Apr-12 21:00N 51°57' E 003°39'8 8.7
2018-Apr-12 20:06N 51°55' E 003°27'411.7
2018-Apr-12 19:46N 51°53' E 003°22'510.6
2018-Apr-12 19:20N 51°49' E 003°18'3 8.3
2018-Apr-12 18:58N 51°46' E 003°16'11 8.7
2018-Apr-12 17:46N 51°37' E 003°22'310.9
2018-Apr-12 17:28N 51°34' E 003°25'5 9.9
2018-Apr-12 17:00N 51°30' E 003°29'511.0
2018-Apr-12 16:31N 51°26' E 003°35'510.1
2018-Apr-12 16:00N 51°24' E 003°43'612.9
2018-Apr-12 15:30N 51°21' E 003°51'713.5
2018-Apr-12 15:00N 51°26' E 003°59'511.1
2018-Apr-12 14:30N 51°22' E 004°05'510.1
2018-Apr-12 14:01N 51°23' E 004°13'510.3
2018-Apr-12 13:30N 51°18' E 004°16'1 2.5
2018-Apr-12 13:00N 51°17' E 004°15'0 0.9
2018-Apr-12 12:31N 51°16' E 004°15'1 1.6
2018-Apr-12 11:56N 51°15' E 004°14'0 0.0
2018-Apr-12 11:26N 51°15' E 004°14'0 0.0
2018-Apr-12 10:59N 51°15' E 004°14'0 0.0
2018-Apr-12 10:26N 51°15' E 004°14'0 0.0
2018-Apr-12 09:59N 51°15' E 004°14'0 0.0
2018-Apr-12 09:29N 51°15' E 004°14'0 0.0
2018-Apr-12 08:59N 51°15' E 004°14'0 0.0
2018-Apr-12 08:29N 51°15' E 004°14'0 0.0
2018-Apr-12 07:59N 51°15' E 004°14'0 0.0
2018-Apr-12 07:29N 51°15' E 004°14'0 0.0
2018-Apr-12 06:59N 51°15' E 004°14'0 0.0
2018-Apr-12 06:23N 51°15' E 004°14'0 0.0
2018-Apr-12 05:59N 51°15' E 004°14'0 0.0
2018-Apr-12 05:26N 51°15' E 004°14'0 0.0
2018-Apr-12 04:59N 51°15' E 004°14'0 0.0
2018-Apr-12 04:29N 51°15' E 004°14'0 0.0
2018-Apr-12 03:53N 51°15' E 004°14'0 0.0
2018-Apr-12 03:29N 51°15' E 004°14'0 0.0
2018-Apr-12 02:59N 51°15' E 004°14'0 0.0
2018-Apr-12 02:29N 51°15' E 004°14'0 0.0
2018-Apr-12 01:59N 51°15' E 004°14'0 0.0
2018-Apr-12 01:29N 51°15' E 004°14'0 0.0
2018-Apr-12 00:59N 51°15' E 004°14'0 0.0
2018-Apr-12 00:25N 51°15' E 004°14'0 0.0
2018-Apr-11 23:58N 51°15' E 004°14'0 0.0
2018-Apr-11 23:29N 51°15' E 004°14'0 0.0
2018-Apr-11 22:52N 51°15' E 004°14'0 0.0
2018-Apr-11 22:29N 51°15' E 004°14'0 0.0
2018-Apr-11 21:59N 51°15' E 004°14'0 0.0
2018-Apr-11 21:29N 51°15' E 004°14'0 0.0
2018-Apr-11 20:59N 51°15' E 004°14'0 0.0
2018-Apr-11 20:26N 51°15' E 004°14'0 0.0
2018-Apr-11 19:59N 51°15' E 004°14'0 0.0
2018-Apr-11 19:26N 51°15' E 004°14'0 0.0
2018-Apr-11 18:53N 51°15' E 004°14'0 0.0
2018-Apr-11 18:29N 51°15' E 004°14'0 0.0
2018-Apr-11 17:55N 51°15' E 004°14'0 0.0
2018-Apr-11 17:22N 51°15' E 004°14'0 0.0
2018-Apr-11 16:56N 51°15' E 004°14'0 0.0
2018-Apr-11 16:28N 51°15' E 004°14'0 0.0
2018-Apr-11 15:55N 51°15' E 004°14'0 0.0
2018-Apr-11 15:25N 51°15' E 004°14'0 0.0
2018-Apr-11 14:43N 51°15' E 004°14'0 0.0
2018-Apr-11 14:16N 51°15' E 004°14'0 0.0
2018-Apr-11 13:58N 51°15' E 004°14'0 0.0
2018-Apr-11 13:28N 51°15' E 004°14'0 0.0
2018-Apr-11 12:50N 51°15' E 004°14'0 0.0
2018-Apr-11 12:28N 51°15' E 004°14'0 0.0
2018-Apr-11 11:55N 51°15' E 004°14'0 0.0
2018-Apr-11 11:28N 51°15' E 004°14'0 0.0
2018-Apr-11 10:58N 51°15' E 004°14'0 0.0
2018-Apr-11 10:22N 51°15' E 004°14'0 0.0
2018-Apr-11 09:55N 51°15' E 004°14'0 0.0
2018-Apr-11 09:16N 51°15' E 004°14'0 0.0
2018-Apr-11 08:58N 51°15' E 004°14'0 0.0
2018-Apr-11 08:28N 51°15' E 004°14'0 0.0
2018-Apr-11 07:58N 51°15' E 004°14'0 0.0
2018-Apr-11 07:25N 51°15' E 004°14'0 0.0
2018-Apr-11 06:58N 51°15' E 004°14'0 0.0
2018-Apr-11 06:28N 51°15' E 004°14'0 0.0
2018-Apr-11 05:55N 51°15' E 004°14'0 0.0
2018-Apr-11 05:19N 51°15' E 004°14'0 0.0
2018-Apr-11 04:58N 51°15' E 004°14'0 0.0
2018-Apr-11 04:22N 51°15' E 004°14'0 0.0
2018-Apr-11 03:58N 51°15' E 004°14'0 0.0
2018-Apr-11 03:25N 51°15' E 004°14'0 0.0
2018-Apr-11 02:52N 51°15' E 004°14'0 0.0
2018-Apr-11 02:13N 51°15' E 004°14'0 0.0
2018-Apr-11 01:59N 51°15' E 004°14'0 0.0
2018-Apr-11 01:28N 51°15' E 004°14'0 0.0
2018-Apr-11 00:55N 51°15' E 004°14'0 0.0
2018-Apr-11 00:28N 51°15' E 004°14'0 0.0
2018-Apr-10 23:49N 51°15' E 004°14'0 0.0
2018-Apr-10 23:25N 51°15' E 004°14'0 0.0
2018-Apr-10 22:58N 51°15' E 004°14'0 0.0
2018-Apr-10 22:28N 51°15' E 004°14'0 0.0
2018-Apr-10 21:46N 51°15' E 004°14'0 0.0
2018-Apr-10 21:13N 51°15' E 004°14'0 0.0
2018-Apr-10 20:58N 51°15' E 004°14'0 0.0
2018-Apr-10 20:07N 51°15' E 004°14'0 0.0
2018-Apr-10 19:58N 51°15' E 004°14'0 0.0
2018-Apr-10 19:28N 51°15' E 004°14'0 0.0
2018-Apr-10 18:58N 51°15' E 004°14'0 0.0
2018-Apr-10 18:25N 51°15' E 004°14'0 0.0
2018-Apr-10 17:52N 51°15' E 004°14'0 0.0
2018-Apr-10 17:22N 51°15' E 004°14'0 0.0
2018-Apr-10 16:58N 51°15' E 004°14'0 0.0
2018-Apr-10 16:28N 51°15' E 004°14'0 0.0
2018-Apr-10 15:58N 51°15' E 004°14'0 0.0
2018-Apr-10 15:07N 51°15' E 004°14'0 0.0
2018-Apr-10 14:58N 51°15' E 004°14'0 0.0
2018-Apr-10 14:28N 51°15' E 004°14'0 0.0
2018-Apr-10 13:46N 51°15' E 004°14'0 0.0
2018-Apr-10 13:28N 51°15' E 004°14'0 0.0
2018-Apr-10 12:55N 51°15' E 004°14'0 0.0
2018-Apr-10 12:25N 51°15' E 004°14'0 0.0
2018-Apr-10 11:58N 51°15' E 004°14'0 0.0
2018-Apr-10 11:28N 51°15' E 004°14'0 0.0
2018-Apr-10 10:58N 51°15' E 004°14'0 0.0
2018-Apr-10 10:28N 51°15' E 004°14'0 0.0
2018-Apr-10 09:52N 51°15' E 004°14'0 0.0
2018-Apr-10 09:22N 51°15' E 004°14'0 0.0
2018-Apr-10 07:34N 51°15' E 004°14'0 0.0
2018-Apr-10 07:28N 51°15' E 004°14'0 0.0
2018-Apr-10 06:52N 51°15' E 004°14'0 0.0
2018-Apr-10 06:22N 51°15' E 004°14'0 0.0
2018-Apr-10 05:46N 51°15' E 004°14'0 0.0
2018-Apr-10 05:28N 51°15' E 004°14'0 0.0
2018-Apr-10 04:55N 51°15' E 004°14'0 0.0
2018-Apr-10 04:28N 51°15' E 004°14'0 0.0
2018-Apr-10 03:58N 51°15' E 004°14'0 0.0
2018-Apr-10 03:28N 51°15' E 004°14'0 0.0
2018-Apr-10 02:58N 51°15' E 004°14'0 0.0
2018-Apr-10 02:22N 51°15' E 004°14'0 0.0
2018-Apr-10 01:55N 51°15' E 004°14'0 0.0
2018-Apr-10 01:25N 51°15' E 004°14'0 0.0
2018-Apr-10 00:58N 51°15' E 004°14'0 0.0
2018-Apr-10 00:25N 51°15' E 004°14'0 0.0
2018-Apr-09 23:58N 51°15' E 004°14'0 0.0
2018-Apr-09 23:16N 51°15' E 004°14'0 0.0
2018-Apr-09 22:58N 51°15' E 004°14'0 0.0
2018-Apr-09 22:28N 51°15' E 004°14'0 0.0
2018-Apr-09 21:58N 51°15' E 004°14'0 0.0
2018-Apr-09 21:25N 51°15' E 004°14'0 0.0
2018-Apr-09 20:55N 51°15' E 004°14'0 0.0
2018-Apr-09 20:25N 51°15' E 004°14'0 0.0
2018-Apr-09 19:58N 51°15' E 004°14'0 0.0
2018-Apr-09 19:25N 51°15' E 004°14'0 0.0
2018-Apr-09 18:58N 51°15' E 004°14'0 0.0
2018-Apr-09 18:28N 51°15' E 004°14'0 0.0
2018-Apr-09 17:58N 51°15' E 004°14'0 0.0
2018-Apr-09 17:28N 51°15' E 004°14'0 0.0
2018-Apr-09 16:52N 51°15' E 004°14'0 0.0
2018-Apr-09 16:22N 51°15' E 004°14'0 0.0
2018-Apr-09 15:58N 51°15' E 004°14'0 0.0
2018-Apr-09 15:25N 51°15' E 004°14'0 0.0
2018-Apr-09 14:58N 51°15' E 004°14'0 0.0
2018-Apr-09 14:28N 51°15' E 004°14'0 0.0
2018-Apr-09 13:58N 51°15' E 004°14'0 0.0
2018-Apr-09 13:28N 51°15' E 004°14'0 0.0
2018-Apr-09 12:55N 51°15' E 004°14'0 0.0
2018-Apr-09 12:25N 51°15' E 004°14'0 0.0
2018-Apr-09 11:52N 51°15' E 004°14'0 0.0
2018-Apr-09 11:28N 51°15' E 004°14'0 0.0
2018-Apr-09 10:52N 51°15' E 004°14'0 0.0
2018-Apr-09 10:28N 51°15' E 004°14'0 0.0
2018-Apr-09 09:58N 51°15' E 004°14'0 0.0
2018-Apr-09 09:28N 51°15' E 004°14'0 0.0
2018-Apr-09 08:55N 51°15' E 004°14'0 0.0
2018-Apr-09 08:19N 51°15' E 004°14'0 0.0
2018-Apr-09 07:55N 51°15' E 004°14'0 0.0
2018-Apr-09 07:25N 51°15' E 004°14'0 0.0
2018-Apr-09 06:58N 51°15' E 004°14'0 0.0
2018-Apr-09 06:25N 51°15' E 004°14'0 0.0
2018-Apr-09 05:58N 51°15' E 004°14'0 0.0
2018-Apr-09 05:13N 51°15' E 004°14'0 0.0
2018-Apr-09 04:55N 51°15' E 004°14'0 0.0
2018-Apr-09 04:28N 51°15' E 004°14'0 0.0
2018-Apr-09 03:52N 51°15' E 004°14'0 0.0
2018-Apr-09 03:28N 51°15' E 004°14'0 0.0
2018-Apr-09 02:58N 51°15' E 004°14'0 0.0
2018-Apr-09 02:28N 51°15' E 004°14'0 0.0
2018-Apr-09 01:58N 51°15' E 004°14'0 0.0
2018-Apr-09 01:28N 51°15' E 004°14'0 0.0
2018-Apr-09 00:55N 51°15' E 004°14'0 0.0
2018-Apr-09 00:28N 51°15' E 004°14'0 0.0
2018-Apr-08 23:55N 51°15' E 004°14'0 0.0
2018-Apr-08 23:25N 51°15' E 004°14'0 0.0
2018-Apr-08 22:58N 51°15' E 004°14'0 0.0
2018-Apr-08 22:28N 51°15' E 004°14'0 0.0
2018-Apr-08 21:58N 51°15' E 004°14'0 0.0
2018-Apr-08 21:28N 51°15' E 004°14'0 0.0
2018-Apr-08 20:55N 51°15' E 004°14'0 0.0
2018-Apr-08 20:25N 51°15' E 004°14'0 0.0
2018-Apr-08 19:55N 51°15' E 004°14'0 0.0
2018-Apr-08 19:28N 51°15' E 004°14'0 0.0
2018-Apr-08 18:58N 51°15' E 004°14'0 0.0
2018-Apr-08 18:28N 51°15' E 004°14'0 0.0
2018-Apr-08 17:58N 51°15' E 004°14'0 0.0
2018-Apr-08 17:28N 51°15' E 004°14'0 0.0
2018-Apr-08 16:46N 51°15' E 004°14'0 0.0
2018-Apr-08 16:25N 51°15' E 004°14'0 0.0
2018-Apr-08 15:55N 51°15' E 004°14'0 0.0
2018-Apr-08 14:43N 51°15' E 004°14'0 0.0
2018-Apr-08 14:28N 51°15' E 004°14'0 0.0
2018-Apr-08 13:55N 51°15' E 004°14'0 0.0
2018-Apr-08 13:25N 51°15' E 004°14'0 0.0
2018-Apr-08 12:58N 51°15' E 004°14'0 0.0
2018-Apr-08 12:25N 51°15' E 004°14'0 0.0
2018-Apr-08 11:55N 51°15' E 004°14'0 0.0
2018-Apr-08 11:25N 51°15' E 004°14'0 0.0
2018-Apr-08 10:55N 51°15' E 004°14'0 0.0
2018-Apr-08 10:28N 51°15' E 004°14'0 0.0
2018-Apr-08 09:52N 51°15' E 004°14'0 0.0
2018-Apr-08 09:28N 51°15' E 004°14'0 0.0
2018-Apr-08 08:58N 51°15' E 004°14'0 0.0
2018-Apr-08 08:28N 51°15' E 004°14'0 0.0
2018-Apr-08 07:58N 51°15' E 004°14'0 0.0
2018-Apr-08 07:28N 51°15' E 004°14'0 0.0
2018-Apr-08 06:55N 51°15' E 004°14'0 0.0
2018-Apr-08 06:28N 51°15' E 004°14'0 0.0
2018-Apr-08 05:58N 51°15' E 004°14'0 0.0
2018-Apr-08 05:28N 51°15' E 004°14'0 0.0
2018-Apr-08 04:55N 51°15' E 004°14'0 0.0
2018-Apr-08 04:28N 51°15' E 004°14'0 0.0
2018-Apr-08 03:58N 51°15' E 004°14'0 0.0
2018-Apr-08 03:28N 51°15' E 004°14'0 0.0
2018-Apr-08 02:58N 51°15' E 004°14'0 0.0
2018-Apr-08 02:25N 51°15' E 004°14'0 0.0
2018-Apr-08 01:55N 51°15' E 004°14'0 0.0
2018-Apr-08 01:28N 51°15' E 004°14'0 0.0
2018-Apr-08 00:55N 51°15' E 004°14'0 0.0
2018-Apr-08 00:28N 51°15' E 004°14'0 0.0
2018-Apr-07 23:55N 51°15' E 004°14'0 0.0
2018-Apr-07 23:28N 51°15' E 004°14'0 0.0
2018-Apr-07 22:55N 51°15' E 004°14'0 0.0
2018-Apr-07 22:28N 51°15' E 004°14'0 0.0
2018-Apr-07 21:58N 51°15' E 004°14'0 0.0
2018-Apr-07 21:28N 51°15' E 004°14'0 0.0
2018-Apr-07 20:58N 51°15' E 004°14'0 0.0
2018-Apr-07 20:28N 51°15' E 004°14'0 0.0
2018-Apr-07 19:58N 51°15' E 004°14'0 0.0
2018-Apr-07 19:28N 51°15' E 004°14'0 0.0
2018-Apr-07 18:55N 51°15' E 004°14'0 0.0
2018-Apr-07 18:28N 51°15' E 004°14'0 0.0
2018-Apr-07 17:58N 51°15' E 004°14'0 0.0
2018-Apr-07 17:28N 51°15' E 004°14'0 0.0
2018-Apr-07 16:58N 51°15' E 004°14'0 0.0
2018-Apr-07 16:28N 51°15' E 004°14'0 0.0
2018-Apr-07 15:58N 51°15' E 004°14'0 0.0
2018-Apr-07 15:25N 51°15' E 004°14'0 0.0
2018-Apr-07 14:49N 51°15' E 004°14'0 0.0
2018-Apr-07 14:28N 51°15' E 004°14'0 0.0
2018-Apr-07 13:58N 51°15' E 004°14'0 0.0
2018-Apr-07 13:28N 51°15' E 004°14'0 0.0
2018-Apr-07 12:55N 51°15' E 004°14'0 0.0
2018-Apr-07 12:28N 51°15' E 004°14'0 0.0
2018-Apr-07 11:58N 51°15' E 004°14'0 0.0
2018-Apr-07 11:25N 51°15' E 004°14'0 0.0
2018-Apr-07 10:58N 51°15' E 004°14'0 0.0
2018-Apr-07 10:19N 51°15' E 004°14'0 0.0
2018-Apr-07 09:55N 51°15' E 004°14'0 0.0
2018-Apr-07 09:28N 51°15' E 004°14'0 0.0
2018-Apr-07 08:58N 51°15' E 004°14'0 0.0
2018-Apr-07 08:28N 51°15' E 004°14'0 0.0
2018-Apr-07 07:58N 51°15' E 004°14'0 0.0
2018-Apr-07 07:25N 51°15' E 004°14'0 0.0
2018-Apr-07 06:58N 51°15' E 004°14'0 0.0
2018-Apr-07 06:22N 51°15' E 004°14'0 0.0
2018-Apr-07 05:52N 51°15' E 004°14'0 0.0
2018-Apr-07 05:28N 51°15' E 004°14'0 0.0
2018-Apr-07 04:58N 51°15' E 004°14'0 0.0
2018-Apr-07 04:28N 51°15' E 004°14'0 0.0
2018-Apr-07 03:58N 51°15' E 004°14'0 0.0
2018-Apr-07 03:25N 51°15' E 004°14'0 0.0
2018-Apr-07 02:58N 51°15' E 004°14'0 0.0
2018-Apr-07 02:28N 51°15' E 004°14'0 0.0
2018-Apr-07 01:58N 51°15' E 004°14'0 0.0
2018-Apr-07 01:28N 51°15' E 004°14'0 0.0
2018-Apr-07 00:58N 51°15' E 004°14'0 0.0
2018-Apr-07 00:30N 51°15' E 004°14'2 3.4
2018-Apr-07 00:00N 51°16' E 004°17'0 0.0
2018-Apr-06 23:31N 51°16' E 004°17'1 1.1
2018-Apr-06 23:00N 51°16' E 004°18'2 3.3
2018-Apr-06 22:30N 51°17' E 004°19'3 6.6
2018-Apr-06 22:00N 51°20' E 004°16'5 9.2
2018-Apr-06 21:30N 51°24' E 004°12'510.7
2018-Apr-06 21:00N 51°22' E 004°04'5 9.3
2018-Apr-06 20:30N 51°26' E 003°59'611.8
2018-Apr-06 20:00N 51°21' E 003°53'3 5.7
2018-Apr-06 19:30N 51°20' E 003°49'0 0.4
2018-Apr-06 19:00N 51°20' E 003°49'1 2.3
2018-Apr-06 18:31N 51°18' E 003°50'0 0.8
2018-Apr-06 17:59N 51°18' E 003°50'0 0.0
2018-Apr-06 17:29N 51°18' E 003°50'0 0.0
2018-Apr-06 16:59N 51°18' E 003°50'0 0.0
2018-Apr-06 16:29N 51°18' E 003°50'0 0.0
2018-Apr-06 15:59N 51°18' E 003°50'0 0.0
2018-Apr-06 15:29N 51°18' E 003°50'0 0.0
2018-Apr-06 14:59N 51°18' E 003°50'0 0.0
2018-Apr-06 14:29N 51°18' E 003°50'0 0.0
2018-Apr-06 13:59N 51°18' E 003°50'0 0.0
2018-Apr-06 13:29N 51°18' E 003°50'0 0.0
2018-Apr-06 12:59N 51°18' E 003°50'0 0.0
2018-Apr-06 12:29N 51°18' E 003°50'0 0.0
2018-Apr-06 11:59N 51°18' E 003°50'0 0.0
2018-Apr-06 11:29N 51°18' E 003°50'0 0.0
2018-Apr-06 10:59N 51°18' E 003°50'0 0.0
2018-Apr-06 10:29N 51°18' E 003°50'0 0.0
2018-Apr-06 09:59N 51°18' E 003°50'0 0.0
2018-Apr-06 09:29N 51°18' E 003°50'0 0.0
2018-Apr-06 08:59N 51°18' E 003°50'0 0.0
2018-Apr-06 08:29N 51°18' E 003°50'0 0.0
2018-Apr-06 07:59N 51°18' E 003°50'0 0.0
2018-Apr-06 07:29N 51°18' E 003°50'0 0.0
2018-Apr-06 06:59N 51°18' E 003°50'0 0.0
2018-Apr-06 06:29N 51°18' E 003°50'0 0.0
2018-Apr-06 05:59N 51°18' E 003°50'0 0.0
2018-Apr-06 05:29N 51°18' E 003°50'0 0.0
2018-Apr-06 04:59N 51°18' E 003°50'0 0.0
2018-Apr-06 04:29N 51°18' E 003°50'0 0.0
2018-Apr-06 03:59N 51°18' E 003°50'0 0.0
2018-Apr-06 03:28N 51°18' E 003°50'0 0.0
2018-Apr-06 02:58N 51°18' E 003°50'0 0.0
2018-Apr-06 02:28N 51°18' E 003°50'0 0.0
2018-Apr-06 01:59N 51°18' E 003°50'0 0.0
2018-Apr-06 01:29N 51°18' E 003°50'0 0.0
2018-Apr-06 00:59N 51°18' E 003°50'0 0.0
2018-Apr-06 00:29N 51°18' E 003°50'0 0.0
2018-Apr-05 23:59N 51°18' E 003°50'0 0.0
2018-Apr-05 23:29N 51°18' E 003°50'0 0.0
2018-Apr-05 22:58N 51°18' E 003°50'0 0.0
2018-Apr-05 22:28N 51°18' E 003°50'0 0.0
2018-Apr-05 21:59N 51°18' E 003°50'0 0.0
2018-Apr-05 21:29N 51°18' E 003°50'0 0.0
2018-Apr-05 20:58N 51°18' E 003°50'0 0.0
2018-Apr-05 20:25N 51°18' E 003°50'0 0.0
2018-Apr-05 19:58N 51°18' E 003°50'0 0.0
2018-Apr-05 19:28N 51°18' E 003°50'0 0.0
2018-Apr-05 18:58N 51°18' E 003°50'0 0.0
2018-Apr-05 18:28N 51°18' E 003°50'0 0.0
2018-Apr-05 17:59N 51°18' E 003°50'0 0.0
2018-Apr-05 17:28N 51°18' E 003°50'0 0.0
2018-Apr-05 16:58N 51°18' E 003°50'0 0.0
2018-Apr-05 16:28N 51°18' E 003°50'0 0.0
2018-Apr-05 15:58N 51°18' E 003°50'0 0.0
2018-Apr-05 15:28N 51°18' E 003°50'0 0.0
2018-Apr-05 14:58N 51°18' E 003°50'0 0.0
2018-Apr-05 14:28N 51°18' E 003°50'0 0.0
2018-Apr-05 13:58N 51°18' E 003°50'0 0.0
2018-Apr-05 13:28N 51°18' E 003°50'0 0.0
2018-Apr-05 12:58N 51°18' E 003°50'0 0.0
2018-Apr-05 12:29N 51°18' E 003°50'0 0.0
2018-Apr-05 11:58N 51°18' E 003°50'0 0.0
2018-Apr-05 11:28N 51°18' E 003°50'0 0.0
2018-Apr-05 10:58N 51°18' E 003°50'0 0.0
2018-Apr-05 10:28N 51°18' E 003°50'0 0.0
2018-Apr-05 09:58N 51°18' E 003°50'0 0.0
2018-Apr-05 09:26N 51°18' E 003°50'0 0.0
2018-Apr-05 08:58N 51°18' E 003°50'0 0.0
2018-Apr-05 08:28N 51°18' E 003°50'0 0.0
2018-Apr-05 07:58N 51°18' E 003°50'0 0.0
2018-Apr-05 07:28N 51°18' E 003°50'0 0.0
2018-Apr-05 06:58N 51°18' E 003°50'0 0.0
2018-Apr-05 06:28N 51°18' E 003°50'0 0.0
2018-Apr-05 05:58N 51°18' E 003°50'0 0.0
2018-Apr-05 05:28N 51°18' E 003°50'0 0.0
2018-Apr-05 04:58N 51°18' E 003°50'0 0.0
2018-Apr-05 04:28N 51°18' E 003°50'0 0.0
2018-Apr-05 03:58N 51°18' E 003°50'0 0.0
2018-Apr-05 03:28N 51°18' E 003°50'0 0.0
2018-Apr-05 02:58N 51°18' E 003°50'0 0.0
2018-Apr-05 02:28N 51°18' E 003°50'0 0.0
2018-Apr-05 01:58N 51°18' E 003°50'0 0.0
2018-Apr-05 01:28N 51°18' E 003°50'0 0.0
2018-Apr-05 00:58N 51°18' E 003°50'0 0.0
2018-Apr-05 00:28N 51°18' E 003°50'0 0.0
2018-Apr-04 23:59N 51°18' E 003°50'0 0.0
2018-Apr-04 23:28N 51°18' E 003°50'0 0.0
2018-Apr-04 22:58N 51°18' E 003°50'0 0.0
2018-Apr-04 22:28N 51°18' E 003°50'0 0.0
2018-Apr-04 21:58N 51°18' E 003°50'0 0.0
2018-Apr-04 21:29N 51°18' E 003°50'0 0.0
2018-Apr-04 20:58N 51°18' E 003°50'0 0.0
2018-Apr-04 20:28N 51°18' E 003°50'0 0.0
2018-Apr-04 19:58N 51°18' E 003°50'0 0.0
2018-Apr-04 19:28N 51°18' E 003°50'0 0.0
2018-Apr-04 18:58N 51°18' E 003°50'0 0.0
2018-Apr-04 18:28N 51°18' E 003°50'0 0.0
2018-Apr-04 17:58N 51°18' E 003°50'0 0.0
2018-Apr-04 17:28N 51°18' E 003°50'0 0.0
2018-Apr-04 16:58N 51°18' E 003°50'0 0.0
2018-Apr-04 16:28N 51°18' E 003°50'  

Dump ship's entire track history